Terminal Aerodrome Forecast
Issued by NWS Twin Cities, MN

Home | Current Version | Previous Version | Text Only | Print | Product List | Glossary On
Versions: 1 2 3 4 5 6 7 8 9 10 11 12 13 14 15 16 17 18 19 20 21 22 23 24 25
000
FTUS43 KMPX 231400 AAA
TAFMSP
TAF AMD
KMSP 231450Z 2315/2418 21004KT P6SM OVC010
     FM231600 24006KT P6SM SCT010 BKN015
     FM231800 24008KT P6SM FEW015
     FM240100 22005KT P6SM SKC
     FM240900 19004KT P6SM FEW250
     FM241500 18006KT P6SM SCT030=

USA.gov is the U.S. government's official web portal to all federal, state and local government web resources and services.